LVJAM SAZM-SABE
Flight info
| Callsign | LVJAM |
|---|---|
| Flight time | 0h 50m |
| Altitude | 17000 |
| Route | PULPA W31 TENIL |
| Aircraft | CJ25/L-SDE3L/L |
Departure
| Time | 2026-05-07 23:14 |
|---|---|
| Airport | Ástor Piazzola International Airport (SAZM) |
Arrival
| Time | 2026-05-08 00:05 |
|---|---|
| Airport | Aeroparque Jorge Newbery (SABE) |
| Time | Latitude | Longitude | Altitude | Speed | Heading |
|---|---|---|---|---|---|
| 2026-05-07 23:02 | -37.93361 | -57.58029 | 77 ft | 0 kts | 343° |
| 2026-05-07 23:04 | -37.93360 | -57.58029 | 77 ft | 0 kts | 343° |
| 2026-05-07 23:08 | -37.93359 | -57.58029 | 77 ft | 0 kts | 343° |
| 2026-05-07 23:09 | -37.93338 | -57.58036 | 77 ft | 18 kts | 355° |
| 2026-05-07 23:10 | -37.93357 | -57.57999 | 77 ft | 9 kts | 163° |
| 2026-05-07 23:10 | -37.93412 | -57.57963 | 77 ft | 8 kts | 124° |
| 2026-05-07 23:10 | -37.93423 | -57.57900 | 77 ft | 7 kts | 94° |
| 2026-05-07 23:10 | -37.93432 | -57.57849 | 77 ft | 5 kts | 114° |
| 2026-05-07 23:11 | -37.93470 | -57.57739 | 77 ft | 22 kts | 120° |
| 2026-05-07 23:11 | -37.93561 | -57.57539 | 77 ft | 26 kts | 120° |
| 2026-05-07 23:11 | -37.93659 | -57.57320 | 77 ft | 29 kts | 121° |
| 2026-05-07 23:11 | -37.93754 | -57.57115 | 77 ft | 25 kts | 120° |
| 2026-05-07 23:12 | -37.93860 | -57.56886 | 77 ft | 33 kts | 118° |
| 2026-05-07 23:12 | -37.93970 | -57.56643 | 77 ft | 32 kts | 119° |
| 2026-05-07 23:12 | -37.94006 | -57.56482 | 77 ft | 3 kts | 66° |
| 2026-05-07 23:12 | -37.93997 | -57.56453 | 77 ft | 4 kts | 69° |
| 2026-05-07 23:13 | -37.93985 | -57.56414 | 77 ft | 6 kts | 65° |
| 2026-05-07 23:13 | -37.93938 | -57.56349 | 77 ft | 5 kts | 34° |
| 2026-05-07 23:13 | -37.93930 | -57.56332 | 77 ft | 5 kts | 4° |
| 2026-05-07 23:13 | -37.93924 | -57.56342 | 77 ft | 2 kts | 300° |
| 2026-05-07 23:14 | -37.93804 | -57.56571 | 77 ft | 77 kts | 302° |
| 2026-05-07 23:14 | -37.93364 | -57.57426 | 222 ft | 140 kts | 304° |
| 2026-05-07 23:14 | -37.92770 | -57.58570 | 794 ft | 173 kts | 304° |
| 2026-05-07 23:14 | -37.92053 | -57.59874 | 1716 ft | 191 kts | 308° |
| 2026-05-07 23:15 | -37.90832 | -57.60968 | 1942 ft | 245 kts | 341° |
| 2026-05-07 23:15 | -37.89051 | -57.61256 | 2557 ft | 261 kts | 360° |
| 2026-05-07 23:15 | -37.87405 | -57.61173 | 4519 ft | 217 kts | 3° |
| 2026-05-07 23:15 | -37.85977 | -57.60999 | 6125 ft | 199 kts | 2° |
| 2026-05-07 23:16 | -37.84581 | -57.60733 | 7103 ft | 206 kts | 4° |
| 2026-05-07 23:16 | -37.83160 | -57.60416 | 8012 ft | 209 kts | 3° |
| 2026-05-07 23:16 | -37.81729 | -57.60361 | 8927 ft | 206 kts | 349° |
| 2026-05-07 23:16 | -37.80318 | -57.60664 | 9853 ft | 203 kts | 341° |
| 2026-05-07 23:17 | -37.78908 | -57.61136 | 10335 ft | 227 kts | 339° |
| 2026-05-07 23:17 | -37.77238 | -57.61775 | 10175 ft | 272 kts | 338° |
| 2026-05-07 23:17 | -37.75334 | -57.62546 | 10033 ft | 301 kts | 338° |
| 2026-05-07 23:17 | -37.73272 | -57.63401 | 9949 ft | 319 kts | 338° |
| 2026-05-07 23:18 | -37.71112 | -57.64307 | 9828 ft | 331 kts | 338° |
| 2026-05-07 23:18 | -37.69013 | -57.65186 | 10132 ft | 304 kts | 338° |
| 2026-05-07 23:18 | -37.67062 | -57.65988 | 10428 ft | 287 kts | 338° |
| 2026-05-07 23:18 | -37.65139 | -57.66513 | 10647 ft | 283 kts | 350° |
| 2026-05-07 23:19 | -37.63184 | -57.66574 | 10872 ft | 280 kts | 357° |
| 2026-05-07 23:19 | -37.61239 | -57.66465 | 11040 ft | 280 kts | 359° |
| 2026-05-07 23:19 | -37.59285 | -57.66300 | 11166 ft | 280 kts | 360° |
| 2026-05-07 23:19 | -37.57339 | -57.66117 | 11291 ft | 280 kts | 360° |
| 2026-05-07 23:20 | -37.55403 | -57.65928 | 11415 ft | 280 kts | 360° |
| 2026-05-07 23:20 | -37.53442 | -57.65736 | 11469 ft | 283 kts | 0° |
| 2026-05-07 23:20 | -37.51472 | -57.65544 | 11534 ft | 284 kts | 0° |
| 2026-05-07 23:20 | -37.49453 | -57.65352 | 11223 ft | 296 kts | 0° |
| 2026-05-07 23:21 | -37.47458 | -57.65163 | 11614 ft | 280 kts | 360° |
| 2026-05-07 23:21 | -37.45552 | -57.65035 | 12104 ft | 266 kts | 357° |
| 2026-05-07 23:21 | -37.43737 | -57.64999 | 12585 ft | 258 kts | 355° |
| 2026-05-07 23:21 | -37.41963 | -57.64989 | 12958 ft | 255 kts | 355° |
| 2026-05-07 23:22 | -37.40182 | -57.64987 | 13333 ft | 253 kts | 355° |
| 2026-05-07 23:22 | -37.38435 | -57.64985 | 13705 ft | 252 kts | 355° |
| 2026-05-07 23:22 | -37.36678 | -57.64982 | 14080 ft | 250 kts | 355° |
| 2026-05-07 23:22 | -37.34967 | -57.64978 | 14448 ft | 248 kts | 355° |
| 2026-05-07 23:23 | -37.33251 | -57.64971 | 14820 ft | 247 kts | 355° |
| 2026-05-07 23:23 | -37.31521 | -57.64962 | 15197 ft | 245 kts | 355° |
| 2026-05-07 23:23 | -37.29838 | -57.64951 | 15567 ft | 243 kts | 355° |
| 2026-05-07 23:23 | -37.28152 | -57.64938 | 15940 ft | 241 kts | 355° |
| 2026-05-07 23:24 | -37.26484 | -57.64922 | 16311 ft | 239 kts | 355° |
| 2026-05-07 23:24 | -37.24825 | -57.64903 | 16684 ft | 237 kts | 355° |
| 2026-05-07 23:24 | -37.23157 | -57.64885 | 16898 ft | 242 kts | 355° |
| 2026-05-07 23:24 | -37.21444 | -57.64872 | 16986 ft | 251 kts | 355° |
| 2026-05-07 23:25 | -37.19674 | -57.64866 | 17004 ft | 260 kts | 355° |
| 2026-05-07 23:25 | -37.17845 | -57.64867 | 17004 ft | 267 kts | 355° |
| 2026-05-07 23:25 | -37.15956 | -57.64872 | 17003 ft | 271 kts | 355° |
| 2026-05-07 23:25 | -37.14048 | -57.64881 | 17002 ft | 274 kts | 355° |
| 2026-05-07 23:26 | -37.12143 | -57.64892 | 17001 ft | 276 kts | 355° |
| 2026-05-07 23:26 | -37.10216 | -57.64905 | 17001 ft | 277 kts | 355° |
| 2026-05-07 23:26 | -37.08285 | -57.64919 | 17001 ft | 278 kts | 355° |
| 2026-05-07 23:26 | -37.06352 | -57.64934 | 17000 ft | 279 kts | 355° |
| 2026-05-07 23:27 | -37.02467 | -57.64967 | 17000 ft | 279 kts | 354° |
| 2026-05-07 23:27 | -37.00530 | -57.64985 | 17000 ft | 280 kts | 354° |
| 2026-05-07 23:27 | -36.98564 | -57.65003 | 17000 ft | 280 kts | 354° |
| 2026-05-07 23:28 | -36.96632 | -57.65022 | 17000 ft | 280 kts | 354° |
| 2026-05-07 23:28 | -36.94677 | -57.65041 | 17000 ft | 280 kts | 354° |
| 2026-05-07 23:28 | -36.92725 | -57.65061 | 17000 ft | 280 kts | 354° |
| 2026-05-07 23:28 | -36.90779 | -57.65081 | 17000 ft | 280 kts | 354° |
| 2026-05-07 23:29 | -36.88852 | -57.65101 | 17000 ft | 280 kts | 354° |
| 2026-05-07 23:29 | -36.86886 | -57.65123 | 17000 ft | 280 kts | 354° |
| 2026-05-07 23:29 | -36.84953 | -57.65144 | 17000 ft | 280 kts | 354° |
| 2026-05-07 23:29 | -36.82997 | -57.65166 | 17000 ft | 280 kts | 354° |
| 2026-05-07 23:30 | -36.81051 | -57.65189 | 17000 ft | 280 kts | 354° |
| 2026-05-07 23:30 | -36.79106 | -57.65212 | 17000 ft | 280 kts | 354° |
| 2026-05-07 23:30 | -36.77791 | -57.65228 | 17000 ft | 280 kts | 354° |
| 2026-05-07 23:30 | -36.75843 | -57.65252 | 17000 ft | 280 kts | 354° |
| 2026-05-07 23:31 | -36.73909 | -57.65276 | 17000 ft | 280 kts | 354° |
| 2026-05-07 23:31 | -36.71951 | -57.65301 | 17000 ft | 280 kts | 354° |
| 2026-05-07 23:31 | -36.70024 | -57.65326 | 17000 ft | 280 kts | 354° |
| 2026-05-07 23:31 | -36.68080 | -57.65352 | 17000 ft | 280 kts | 354° |
| 2026-05-07 23:32 | -36.66122 | -57.65378 | 17000 ft | 280 kts | 354° |
| 2026-05-07 23:32 | -36.64189 | -57.65405 | 17000 ft | 280 kts | 354° |
| 2026-05-07 23:32 | -36.62242 | -57.65432 | 17000 ft | 280 kts | 354° |
| 2026-05-07 23:32 | -36.60280 | -57.65460 | 17000 ft | 280 kts | 354° |
| 2026-05-07 23:33 | -36.58322 | -57.65488 | 17000 ft | 280 kts | 354° |
| 2026-05-07 23:33 | -36.56399 | -57.65516 | 17000 ft | 280 kts | 354° |
| 2026-05-07 23:33 | -36.54439 | -57.65545 | 17000 ft | 280 kts | 354° |
| 2026-05-07 23:33 | -36.52487 | -57.65575 | 17000 ft | 280 kts | 354° |
| 2026-05-07 23:34 | -36.50528 | -57.65605 | 17000 ft | 280 kts | 354° |
| 2026-05-07 23:34 | -36.48606 | -57.65635 | 17000 ft | 280 kts | 354° |
| 2026-05-07 23:34 | -36.46647 | -57.65666 | 17000 ft | 280 kts | 354° |
| 2026-05-07 23:34 | -36.44696 | -57.65698 | 17000 ft | 280 kts | 354° |
| 2026-05-07 23:35 | -36.42758 | -57.65729 | 17000 ft | 280 kts | 354° |
| 2026-05-07 23:35 | -36.40810 | -57.65762 | 17000 ft | 280 kts | 354° |
| 2026-05-07 23:35 | -36.38856 | -57.65795 | 17000 ft | 280 kts | 354° |
| 2026-05-07 23:35 | -36.36902 | -57.65828 | 17000 ft | 280 kts | 354° |
| 2026-05-07 23:36 | -36.34965 | -57.65862 | 17000 ft | 280 kts | 354° |
| 2026-05-07 23:36 | -36.33026 | -57.65896 | 17000 ft | 280 kts | 354° |
| 2026-05-07 23:36 | -36.31067 | -57.65931 | 17000 ft | 280 kts | 354° |
| 2026-05-07 23:36 | -36.29131 | -57.65966 | 17000 ft | 280 kts | 354° |
| 2026-05-07 23:37 | -36.27892 | -57.65988 | 17000 ft | 280 kts | 354° |
| 2026-05-07 23:37 | -36.26660 | -57.66011 | 17000 ft | 280 kts | 354° |
| 2026-05-07 23:37 | -36.24683 | -57.66048 | 17000 ft | 280 kts | 354° |
| 2026-05-07 23:38 | -36.22750 | -57.66084 | 17000 ft | 280 kts | 354° |
| 2026-05-07 23:38 | -36.20819 | -57.66121 | 17000 ft | 280 kts | 354° |
| 2026-05-07 23:38 | -36.18851 | -57.66159 | 17000 ft | 280 kts | 354° |
| 2026-05-07 23:38 | -36.16914 | -57.66198 | 17000 ft | 280 kts | 354° |
| 2026-05-07 23:39 | -36.14965 | -57.66236 | 17000 ft | 280 kts | 354° |
| 2026-05-07 23:39 | -36.13024 | -57.66276 | 17000 ft | 280 kts | 354° |
| 2026-05-07 23:39 | -36.11069 | -57.66315 | 17000 ft | 280 kts | 354° |
| 2026-05-07 23:39 | -36.09135 | -57.66355 | 17000 ft | 280 kts | 354° |
| 2026-05-07 23:40 | -36.07185 | -57.66396 | 17000 ft | 280 kts | 354° |
| 2026-05-07 23:40 | -36.05225 | -57.66437 | 17000 ft | 280 kts | 354° |
| 2026-05-07 23:40 | -36.03297 | -57.66568 | 17000 ft | 278 kts | 349° |
| 2026-05-07 23:40 | -36.01389 | -57.66882 | 17001 ft | 277 kts | 346° |
| 2026-05-07 23:41 | -35.99486 | -57.67265 | 17000 ft | 276 kts | 345° |
| 2026-05-07 23:41 | -35.98386 | -57.67498 | 17000 ft | 276 kts | 345° |
| 2026-05-07 23:41 | -35.96651 | -57.67873 | 17000 ft | 276 kts | 345° |
| 2026-05-07 23:41 | -35.94772 | -57.68284 | 17000 ft | 276 kts | 345° |
| 2026-05-07 23:42 | -35.92884 | -57.68699 | 17000 ft | 276 kts | 345° |
| 2026-05-07 23:42 | -35.90988 | -57.69116 | 17000 ft | 276 kts | 345° |
| 2026-05-07 23:42 | -35.89097 | -57.69532 | 17000 ft | 276 kts | 345° |
| 2026-05-07 23:42 | -35.87193 | -57.69952 | 17000 ft | 276 kts | 345° |
| 2026-05-07 23:43 | -35.85323 | -57.70364 | 17000 ft | 276 kts | 345° |
| 2026-05-07 23:43 | -35.83415 | -57.70785 | 17000 ft | 276 kts | 345° |
| 2026-05-07 23:43 | -35.81530 | -57.71201 | 17000 ft | 276 kts | 345° |
| 2026-05-07 23:43 | -35.79644 | -57.71617 | 17000 ft | 276 kts | 345° |
| 2026-05-07 23:44 | -35.77740 | -57.72038 | 17000 ft | 276 kts | 345° |
| 2026-05-07 23:44 | -35.75861 | -57.72453 | 17000 ft | 276 kts | 345° |
| 2026-05-07 23:44 | -35.73968 | -57.72871 | 17000 ft | 276 kts | 345° |
| 2026-05-07 23:44 | -35.72053 | -57.73295 | 17000 ft | 276 kts | 345° |
| 2026-05-07 23:45 | -35.70171 | -57.73712 | 17000 ft | 276 kts | 345° |
| 2026-05-07 23:45 | -35.68279 | -57.74131 | 17000 ft | 276 kts | 345° |
| 2026-05-07 23:45 | -35.66404 | -57.74546 | 17000 ft | 276 kts | 345° |
| 2026-05-07 23:45 | -35.64530 | -57.74961 | 17000 ft | 276 kts | 345° |
| 2026-05-07 23:46 | -35.62619 | -57.75385 | 17000 ft | 277 kts | 345° |
| 2026-05-07 23:46 | -35.60717 | -57.75808 | 17000 ft | 276 kts | 345° |
| 2026-05-07 23:46 | -35.58823 | -57.76228 | 17000 ft | 276 kts | 345° |
| 2026-05-07 23:46 | -35.56923 | -57.76650 | 16987 ft | 277 kts | 345° |
| 2026-05-07 23:47 | -35.55029 | -57.77072 | 16902 ft | 279 kts | 345° |
| 2026-05-07 23:47 | -35.53117 | -57.77501 | 16710 ft | 285 kts | 345° |
| 2026-05-07 23:47 | -35.51126 | -57.77953 | 16391 ft | 292 kts | 345° |
| 2026-05-07 23:47 | -35.49137 | -57.78409 | 16072 ft | 296 kts | 345° |
| 2026-05-07 23:48 | -35.47105 | -57.78879 | 15749 ft | 299 kts | 345° |
| 2026-05-07 23:48 | -35.45041 | -57.79359 | 15423 ft | 301 kts | 345° |
| 2026-05-07 23:48 | -35.42990 | -57.79839 | 15099 ft | 302 kts | 345° |
| 2026-05-07 23:48 | -35.40899 | -57.80329 | 14770 ft | 303 kts | 345° |
| 2026-05-07 23:49 | -35.38850 | -57.80811 | 14449 ft | 303 kts | 345° |
| 2026-05-07 23:49 | -35.36764 | -57.81304 | 14122 ft | 304 kts | 345° |
| 2026-05-07 23:49 | -35.34703 | -57.81792 | 13799 ft | 304 kts | 345° |
| 2026-05-07 23:49 | -35.32639 | -57.82283 | 13475 ft | 304 kts | 345° |
| 2026-05-07 23:50 | -35.30539 | -57.82783 | 13147 ft | 304 kts | 345° |
| 2026-05-07 23:50 | -35.28478 | -57.83275 | 12825 ft | 305 kts | 345° |
| 2026-05-07 23:50 | -35.26387 | -57.83776 | 12498 ft | 305 kts | 345° |
| 2026-05-07 23:50 | -35.24838 | -57.84148 | 12256 ft | 305 kts | 345° |
| 2026-05-07 23:51 | -35.23296 | -57.84520 | 12015 ft | 305 kts | 345° |
| 2026-05-07 23:51 | -35.21278 | -57.85210 | 11694 ft | 302 kts | 337° |
| 2026-05-07 23:51 | -35.19307 | -57.86143 | 11368 ft | 301 kts | 334° |
| 2026-05-07 23:51 | -35.17393 | -57.87149 | 11045 ft | 301 kts | 332° |
| 2026-05-07 23:52 | -35.15473 | -57.88198 | 10719 ft | 301 kts | 332° |
| 2026-05-07 23:52 | -35.13579 | -57.89247 | 10396 ft | 301 kts | 332° |
| 2026-05-07 23:52 | -35.11660 | -57.90316 | 10069 ft | 302 kts | 332° |
| 2026-05-07 23:52 | -35.10112 | -57.91181 | 9806 ft | 302 kts | 332° |
| 2026-05-07 23:53 | -35.09084 | -57.91755 | 9630 ft | 302 kts | 332° |
| 2026-05-07 23:53 | -35.07176 | -57.92823 | 9306 ft | 302 kts | 332° |
| 2026-05-07 23:53 | -35.05273 | -57.93890 | 8982 ft | 302 kts | 332° |
| 2026-05-07 23:53 | -35.03363 | -57.94962 | 8657 ft | 303 kts | 332° |
| 2026-05-07 23:54 | -35.01440 | -57.96042 | 8330 ft | 303 kts | 332° |
| 2026-05-07 23:54 | -34.99529 | -57.97115 | 8006 ft | 303 kts | 332° |
| 2026-05-07 23:54 | -34.97606 | -57.98197 | 7679 ft | 303 kts | 332° |
| 2026-05-07 23:54 | -34.95703 | -57.99269 | 7357 ft | 303 kts | 332° |
| 2026-05-07 23:55 | -34.93782 | -58.00351 | 7031 ft | 304 kts | 332° |
| 2026-05-07 23:55 | -34.91869 | -58.01430 | 6707 ft | 304 kts | 332° |
| 2026-05-07 23:55 | -34.89939 | -58.02521 | 6380 ft | 304 kts | 332° |
| 2026-05-07 23:55 | -34.88029 | -58.03610 | 6056 ft | 303 kts | 332° |
| 2026-05-07 23:56 | -34.86143 | -58.04707 | 5734 ft | 303 kts | 332° |
| 2026-05-07 23:56 | -34.84233 | -58.05846 | 5405 ft | 303 kts | 332° |
| 2026-05-07 23:56 | -34.82364 | -58.06987 | 5082 ft | 303 kts | 332° |
| 2026-05-07 23:56 | -34.80477 | -58.08165 | 4756 ft | 304 kts | 332° |
| 2026-05-07 23:57 | -34.78672 | -58.09505 | 4433 ft | 305 kts | 325° |
| 2026-05-07 23:57 | -34.76980 | -58.11052 | 4111 ft | 307 kts | 322° |
| 2026-05-07 23:57 | -34.75303 | -58.12712 | 3784 ft | 309 kts | 320° |
| 2026-05-07 23:57 | -34.73654 | -58.14409 | 3459 ft | 311 kts | 319° |
| 2026-05-07 23:58 | -34.72129 | -58.16017 | 3170 ft | 263 kts | 319° |
| 2026-05-07 23:58 | -34.70867 | -58.17355 | 3038 ft | 224 kts | 319° |
| 2026-05-07 23:58 | -34.69759 | -58.18533 | 2994 ft | 199 kts | 319° |
| 2026-05-07 23:58 | -34.68774 | -58.19580 | 2986 ft | 182 kts | 319° |
| 2026-05-07 23:59 | -34.67854 | -58.20557 | 2985 ft | 169 kts | 319° |
| 2026-05-07 23:59 | -34.66988 | -58.21477 | 2987 ft | 159 kts | 319° |
| 2026-05-07 23:59 | -34.66181 | -58.22333 | 2990 ft | 152 kts | 319° |
| 2026-05-07 23:59 | -34.65396 | -58.23167 | 2992 ft | 148 kts | 319° |
| 2026-05-08 00:00 | -34.64647 | -58.24006 | 2993 ft | 144 kts | 310° |
| 2026-05-08 00:00 | -34.64119 | -58.25017 | 2996 ft | 141 kts | 295° |
| 2026-05-08 00:00 | -34.63740 | -58.26092 | 3009 ft | 132 kts | 291° |
| 2026-05-08 00:00 | -34.63440 | -58.27061 | 2976 ft | 117 kts | 289° |
| 2026-05-08 00:01 | -34.63182 | -58.27942 | 2954 ft | 105 kts | 290° |
| 2026-05-08 00:01 | -34.62939 | -58.28750 | 2821 ft | 101 kts | 290° |
| 2026-05-08 00:01 | -34.62692 | -58.29594 | 2582 ft | 120 kts | 289° |
| 2026-05-08 00:01 | -34.62410 | -58.30547 | 2585 ft | 121 kts | 293° |
| 2026-05-08 00:02 | -34.62019 | -58.31494 | 2390 ft | 131 kts | 299° |
| 2026-05-08 00:02 | -34.61524 | -58.32426 | 2076 ft | 126 kts | 307° |
| 2026-05-08 00:02 | -34.60992 | -58.33236 | 1617 ft | 122 kts | 311° |
| 2026-05-08 00:02 | -34.60400 | -58.34021 | 1020 ft | 133 kts | 313° |
| 2026-05-08 00:03 | -34.59764 | -58.34889 | 1007 ft | 137 kts | 310° |
| 2026-05-08 00:03 | -34.59179 | -58.35776 | 1142 ft | 131 kts | 307° |
| 2026-05-08 00:03 | -34.58652 | -58.36668 | 1184 ft | 132 kts | 304° |
| 2026-05-08 00:03 | -34.58136 | -58.37644 | 1095 ft | 141 kts | 303° |
| 2026-05-08 00:04 | -34.57635 | -58.38573 | 884 ft | 117 kts | 303° |
| 2026-05-08 00:04 | -34.57212 | -58.39344 | 518 ft | 105 kts | 305° |
| 2026-05-08 00:04 | -34.56799 | -58.40025 | 188 ft | 98 kts | 306° |
| 2026-05-08 00:04 | -34.56407 | -58.40698 | 22 ft | 88 kts | 304° |
| 2026-05-08 00:05 | -34.56213 | -58.41050 | 22 ft | 21 kts | 315° |
| 2026-05-08 00:05 | -34.56235 | -58.41122 | 22 ft | 11 kts | 213° |
| 2026-05-08 00:05 | -34.56306 | -58.41160 | 22 ft | 11 kts | 165° |
| 2026-05-08 00:05 | -34.56379 | -58.41096 | 22 ft | 20 kts | 136° |
| 2026-05-08 00:06 | -34.56413 | -58.41050 | 22 ft | 1 kts | 127° |
| 2026-05-08 00:06 | -34.56423 | -58.41035 | 22 ft | 3 kts | 129° |
| 2026-05-08 00:06 | -34.56434 | -58.41018 | 22 ft | 3 kts | 129° |
| 2026-05-08 00:06 | -34.56446 | -58.40997 | 22 ft | 3 kts | 103° |
| 2026-05-08 00:07 | -34.56434 | -58.40976 | 22 ft | 4 kts | 38° |